Decoded Metar for PASK (SELAWIK in AK, USA) (IATA:WLK) | Meteo·Mobile Aviation Weather
aviador You're here:

PASK Decoded Metar

SELAWIK in AK, USA
Report Time2018-08-21 10:56:00
UTC Time2018-08-21 12:10:53
Flight Rules Old
Wind300° at 03 kt
W.Decomp.*RWY 27: 2.9 kt HW 0.7 kt RCW
RWY 22: 1.3 kt HW 2.7 kt RCW
W.Rank300° ranks 23
Current wind is below 300° avg. (5.2)
Visibility9999 m
Phenomena:N/A
Clouds:Broken 005 Hf
Ceiling500 ft
Temp11°C (ISA -4)
Dew Point11°C (100% RH)
AAT10.2°C
QNH1012 hPa
Density Alt-236 ft
Elevation26 ft
Report Wrong Elevation
Raw Report
PASK 211056Z AUTO 30003KT 10SM BKN005 11/11 A2989 RMK AO2 SLP120
T01110106 $=

Extra information for PASK:More info

Metar Taf Metar & Taf Last 4 Metars F.Rules Stats Wind Profile Meteogram Temp Stats Airport Information Weather charts Add Link Nearby VenuesMetar ALERT Operation Metar Decoded Social comments

AIRNAV info for PASK